Terminal Aerodrome Forecast
Issued by NWS Paducah, KY

Home | Current Version | Previous Version | Text Only | Print | Product List | Glossary On
Versions: 1 2 3 4 5 6 7 8 9 10 11 12 13
000
FTUS43 KPAH 241000 AAA
TAFPAH
TAF AMD
KPAH 241002Z 2410/2506 35008KT P6SM SCT008 OVC015
      TEMPO 2410/2414 4SM -RA BR OVC008
     FM241400 29010KT 6SM BR OVC025
     FM241700 28010KT P6SM SCT025 OVC040=

USA.gov is the U.S. government's official web portal to all federal, state and local government web resources and services.